Terminal Aerodrome Forecast
Issued by NWS

Home | Current Version | Previous Version | Text Only | Print | Product List | Glossary Off
Versions: 1 2 3 4 5 6 7 8 9 10 11 12 13 14 15 16 17 18 19 20 21 22 23 24 25 26 27 28 29 30 31 32 33 34 35 36 37 38 39

976
FTUS43 KGRB 250538
TAFRHI
TAF
KRHI 250538Z 2506/2606 05005KT P6SM OVC008
      TEMPO 2506/2510 SCT008 OVC012
     FM251500 08009KT P6SM OVC015
     FM251800 09009G16KT P6SM BKN025
      TEMPO 2518/2522 SCT025 BKN250
     FM252200 08008KT P6SM SCT030 BKN070
     FM260200 08006KT P6SM SCT020 OVC040 PROB30 2604/2606 5SM -FZRA
      BR BKN020=

USA.gov is the U.S. government's official web portal to all federal, state and local government web resources and services.